sensor_id;sensor_type;location;lat;lon;timestamp;temperature;humidity
5723;DHT22;2886;49.722;8.612;2023-05-13T00:00:13;12.70;99.90
5723;DHT22;2886;49.722;8.612;2023-05-13T00:02:38;12.80;99.90
5723;DHT22;2886;49.722;8.612;2023-05-13T00:05:04;12.90;99.90
5723;DHT22;2886;49.722;8.612;2023-05-13T00:07:30;12.90;99.90
5723;DHT22;2886;49.722;8.612;2023-05-13T00:09:56;12.90;99.90
5723;DHT22;2886;49.722;8.612;2023-05-13T00:12:22;12.90;99.90
5723;DHT22;2886;49.722;8.612;2023-05-13T00:14:47;12.90;99.90
5723;DHT22;2886;49.722;8.612;2023-05-13T00:17:13;12.80;99.90
5723;DHT22;2886;49.722;8.612;2023-05-13T00:19:39;12.80;99.90
5723;DHT22;2886;49.722;8.612;2023-05-13T00:22:05;12.80;99.90
5723;DHT22;2886;49.722;8.612;2023-05-13T00:24:30;12.80;99.90
5723;DHT22;2886;49.722;8.612;2023-05-13T00:26:56;12.80;99.90
5723;DHT22;2886;49.722;8.612;2023-05-13T00:29:22;12.80;99.90
5723;DHT22;2886;49.722;8.612;2023-05-13T00:31:47;12.80;99.90
5723;DHT22;2886;49.722;8.612;2023-05-13T00:34:13;12.90;99.90
5723;DHT22;2886;49.722;8.612;2023-05-13T00:36:38;12.90;99.90
5723;DHT22;2886;49.722;8.612;2023-05-13T00:39:04;13.00;99.90
5723;DHT22;2886;49.722;8.612;2023-05-13T00:41:30;13.10;99.90
5723;DHT22;2886;49.722;8.612;2023-05-13T00:43:56;13.20;99.90
5723;DHT22;2886;49.722;8.612;2023-05-13T00:46:22;13.30;99.90
5723;DHT22;2886;49.722;8.612;2023-05-13T00:48:49;13.40;99.90
5723;DHT22;2886;49.722;8.612;2023-05-13T00:51:15;13.50;99.90
5723;DHT22;2886;49.722;8.612;2023-05-13T00:53:41;13.50;99.90
5723;DHT22;2886;49.722;8.612;2023-05-13T00:56:08;13.50;99.90
5723;DHT22;2886;49.722;8.612;2023-05-13T00:58:34;13.50;99.90
5723;DHT22;2886;49.722;8.612;2023-05-13T01:03:37;13.70;99.90
5723;DHT22;2886;49.722;8.612;2023-05-13T01:06:23;13.70;99.90
5723;DHT22;2886;49.722;8.612;2023-05-13T01:08:54;13.80;99.90
5723;DHT22;2886;49.722;8.612;2023-05-13T01:11:29;13.80;99.90
5723;DHT22;2886;49.722;8.612;2023-05-13T01:14:11;13.80;99.90
5723;DHT22;2886;49.722;8.612;2023-05-13T01:16:45;13.80;99.90
5723;DHT22;2886;49.722;8.612;2023-05-13T01:19:41;13.70;99.90
5723;DHT22;2886;49.722;8.612;2023-05-13T01:22:08;13.70;99.90
5723;DHT22;2886;49.722;8.612;2023-05-13T01:24:34;13.70;99.90
5723;DHT22;2886;49.722;8.612;2023-05-13T01:27:00;13.80;99.90
5723;DHT22;2886;49.722;8.612;2023-05-13T01:29:26;13.80;99.90
5723;DHT22;2886;49.722;8.612;2023-05-13T01:31:53;13.80;99.90
5723;DHT22;2886;49.722;8.612;2023-05-13T01:34:21;13.80;99.90
5723;DHT22;2886;49.722;8.612;2023-05-13T01:36:49;14.00;99.20
5723;DHT22;2886;49.722;8.612;2023-05-13T01:39:15;14.10;99.70
5723;DHT22;2886;49.722;8.612;2023-05-13T01:41:42;14.10;99.50
5723;DHT22;2886;49.722;8.612;2023-05-13T01:44:09;14.10;98.90
5723;DHT22;2886;49.722;8.612;2023-05-13T01:46:39;14.00;99.90
5723;DHT22;2886;49.722;8.612;2023-05-13T01:49:05;13.90;99.90
5723;DHT22;2886;49.722;8.612;2023-05-13T01:51:32;13.70;99.90
5723;DHT22;2886;49.722;8.612;2023-05-13T01:53:57;13.50;99.90
5723;DHT22;2886;49.722;8.612;2023-05-13T01:56:23;13.30;99.90
5723;DHT22;2886;49.722;8.612;2023-05-13T01:58:49;13.30;99.90
5723;DHT22;2886;49.722;8.612;2023-05-13T02:01:14;13.30;99.90
5723;DHT22;2886;49.722;8.612;2023-05-13T02:03:40;13.50;99.90
5723;DHT22;2886;49.722;8.612;2023-05-13T02:06:06;13.50;99.90
5723;DHT22;2886;49.722;8.612;2023-05-13T02:08:31;13.40;99.90
5723;DHT22;2886;49.722;8.612;2023-05-13T02:10:58;13.50;99.90
5723;DHT22;2886;49.722;8.612;2023-05-13T02:13:25;13.50;99.90
5723;DHT22;2886;49.722;8.612;2023-05-13T02:15:51;13.60;99.90
5723;DHT22;2886;49.722;8.612;2023-05-13T02:18:17;13.60;99.90
5723;DHT22;2886;49.722;8.612;2023-05-13T02:20:43;13.70;99.90
5723;DHT22;2886;49.722;8.612;2023-05-13T02:23:08;13.70;99.90
5723;DHT22;2886;49.722;8.612;2023-05-13T02:25:35;13.70;99.90
5723;DHT22;2886;49.722;8.612;2023-05-13T02:28:00;13.70;99.90
5723;DHT22;2886;49.722;8.612;2023-05-13T02:30:26;13.70;99.90
5723;DHT22;2886;49.722;8.612;2023-05-13T02:32:52;13.80;99.90
5723;DHT22;2886;49.722;8.612;2023-05-13T02:35:18;13.80;98.20
5723;DHT22;2886;49.722;8.612;2023-05-13T02:37:45;13.80;98.00
5723;DHT22;2886;49.722;8.612;2023-05-13T02:40:11;13.90;97.30
5723;DHT22;2886;49.722;8.612;2023-05-13T02:42:37;13.80;97.60
5723;DHT22;2886;49.722;8.612;2023-05-13T02:45:02;13.90;96.40
5723;DHT22;2886;49.722;8.612;2023-05-13T02:47:28;13.90;96.70
5723;DHT22;2886;49.722;8.612;2023-05-13T02:49:55;13.90;96.70
5723;DHT22;2886;49.722;8.612;2023-05-13T02:52:21;14.00;95.80
5723;DHT22;2886;49.722;8.612;2023-05-13T02:54:46;13.90;96.40
5723;DHT22;2886;49.722;8.612;2023-05-13T02:57:12;13.90;96.60
5723;DHT22;2886;49.722;8.612;2023-05-13T02:59:37;14.00;95.80
5723;DHT22;2886;49.722;8.612;2023-05-13T03:02:03;13.90;95.30
5723;DHT22;2886;49.722;8.612;2023-05-13T03:04:29;13.90;95.00
5723;DHT22;2886;49.722;8.612;2023-05-13T03:06:54;13.90;95.70
5723;DHT22;2886;49.722;8.612;2023-05-13T03:09:20;13.80;94.60
5723;DHT22;2886;49.722;8.612;2023-05-13T03:11:46;13.80;95.00
5723;DHT22;2886;49.722;8.612;2023-05-13T03:14:12;13.70;95.60
5723;DHT22;2886;49.722;8.612;2023-05-13T03:16:37;13.70;93.60
5723;DHT22;2886;49.722;8.612;2023-05-13T03:19:03;13.70;99.10
5723;DHT22;2886;49.722;8.612;2023-05-13T03:21:28;13.60;96.60
5723;DHT22;2886;49.722;8.612;2023-05-13T03:23:54;13.50;96.00
5723;DHT22;2886;49.722;8.612;2023-05-13T03:26:19;13.50;99.90
5723;DHT22;2886;49.722;8.612;2023-05-13T03:28:46;13.40;99.90
5723;DHT22;2886;49.722;8.612;2023-05-13T03:31:12;13.10;99.90
5723;DHT22;2886;49.722;8.612;2023-05-13T03:33:37;12.90;99.90
5723;DHT22;2886;49.722;8.612;2023-05-13T03:36:04;12.90;99.90
5723;DHT22;2886;49.722;8.612;2023-05-13T03:38:30;12.90;99.90
5723;DHT22;2886;49.722;8.612;2023-05-13T03:40:56;13.00;99.90
5723;DHT22;2886;49.722;8.612;2023-05-13T03:43:21;13.10;98.50
5723;DHT22;2886;49.722;8.612;2023-05-13T03:45:48;13.10;99.90
5723;DHT22;2886;49.722;8.612;2023-05-13T03:48:15;13.20;98.50
5723;DHT22;2886;49.722;8.612;2023-05-13T03:50:41;13.30;97.60
5723;DHT22;2886;49.722;8.612;2023-05-13T03:53:07;13.30;97.00
5723;DHT22;2886;49.722;8.612;2023-05-13T03:55:32;13.30;98.60
5723;DHT22;2886;49.722;8.612;2023-05-13T03:57:58;13.20;99.90
5723;DHT22;2886;49.722;8.612;2023-05-13T04:00:23;13.00;99.90
5723;DHT22;2886;49.722;8.612;2023-05-13T04:02:49;12.70;99.90
5723;DHT22;2886;49.722;8.612;2023-05-13T04:05:15;12.40;99.90
5723;DHT22;2886;49.722;8.612;2023-05-13T04:07:41;12.20;99.90
5723;DHT22;2886;49.722;8.612;2023-05-13T04:10:07;12.10;99.90
5723;DHT22;2886;49.722;8.612;2023-05-13T04:12:33;12.00;99.90
5723;DHT22;2886;49.722;8.612;2023-05-13T04:14:59;11.80;99.90
5723;DHT22;2886;49.722;8.612;2023-05-13T04:17:24;11.80;99.90
5723;DHT22;2886;49.722;8.612;2023-05-13T04:19:53;11.80;99.90
5723;DHT22;2886;49.722;8.612;2023-05-13T04:22:20;11.80;99.90
5723;DHT22;2886;49.722;8.612;2023-05-13T04:24:46;11.70;99.90
5723;DHT22;2886;49.722;8.612;2023-05-13T04:27:11;11.80;99.90
5723;DHT22;2886;49.722;8.612;2023-05-13T04:29:38;11.80;99.90
5723;DHT22;2886;49.722;8.612;2023-05-13T04:32:04;11.80;99.90
5723;DHT22;2886;49.722;8.612;2023-05-13T04:34:29;11.80;99.90
5723;DHT22;2886;49.722;8.612;2023-05-13T04:36:55;11.80;99.90
5723;DHT22;2886;49.722;8.612;2023-05-13T04:39:20;11.90;99.90
5723;DHT22;2886;49.722;8.612;2023-05-13T04:41:46;11.90;99.90
5723;DHT22;2886;49.722;8.612;2023-05-13T04:44:12;11.80;99.90
5723;DHT22;2886;49.722;8.612;2023-05-13T04:46:37;11.80;99.90
5723;DHT22;2886;49.722;8.612;2023-05-13T04:49:05;11.90;99.90
5723;DHT22;2886;49.722;8.612;2023-05-13T04:51:31;11.90;99.90
5723;DHT22;2886;49.722;8.612;2023-05-13T04:53:57;11.90;99.90
5723;DHT22;2886;49.722;8.612;2023-05-13T04:56:23;11.80;99.90
5723;DHT22;2886;49.722;8.612;2023-05-13T04:58:48;11.90;99.90
5723;DHT22;2886;49.722;8.612;2023-05-13T05:01:14;12.00;99.90
5723;DHT22;2886;49.722;8.612;2023-05-13T05:03:40;11.90;99.90
5723;DHT22;2886;49.722;8.612;2023-05-13T05:06:06;12.00;99.90
5723;DHT22;2886;49.722;8.612;2023-05-13T05:08:31;12.00;99.90
5723;DHT22;2886;49.722;8.612;2023-05-13T05:10:59;12.00;99.90
5723;DHT22;2886;49.722;8.612;2023-05-13T05:13:25;12.00;99.90
5723;DHT22;2886;49.722;8.612;2023-05-13T05:15:51;12.00;99.90
5723;DHT22;2886;49.722;8.612;2023-05-13T05:18:16;12.00;99.90
5723;DHT22;2886;49.722;8.612;2023-05-13T05:20:42;12.00;99.90
5723;DHT22;2886;49.722;8.612;2023-05-13T05:23:07;12.10;99.90
5723;DHT22;2886;49.722;8.612;2023-05-13T05:25:35;12.10;99.90
5723;DHT22;2886;49.722;8.612;2023-05-13T05:28:01;12.10;99.90
5723;DHT22;2886;49.722;8.612;2023-05-13T05:30:30;12.10;99.90
5723;DHT22;2886;49.722;8.612;2023-05-13T05:32:57;12.10;99.90
5723;DHT22;2886;49.722;8.612;2023-05-13T05:35:23;12.20;99.90
5723;DHT22;2886;49.722;8.612;2023-05-13T05:37:48;12.40;99.90
5723;DHT22;2886;49.722;8.612;2023-05-13T05:40:14;12.40;99.90
5723;DHT22;2886;49.722;8.612;2023-05-13T05:42:40;12.60;99.90
5723;DHT22;2886;49.722;8.612;2023-05-13T05:45:06;12.70;99.90
5723;DHT22;2886;49.722;8.612;2023-05-13T05:47:32;12.90;99.90
5723;DHT22;2886;49.722;8.612;2023-05-13T05:49:57;13.10;99.90
5723;DHT22;2886;49.722;8.612;2023-05-13T05:52:23;13.30;99.90
5723;DHT22;2886;49.722;8.612;2023-05-13T05:54:50;13.40;99.90
5723;DHT22;2886;49.722;8.612;2023-05-13T05:57:15;13.60;99.90
5723;DHT22;2886;49.722;8.612;2023-05-13T05:59:41;13.90;99.90
5723;DHT22;2886;49.722;8.612;2023-05-13T06:02:06;14.40;99.90
5723;DHT22;2886;49.722;8.612;2023-05-13T06:04:32;15.30;99.90
5723;DHT22;2886;49.722;8.612;2023-05-13T06:06:58;16.20;99.90
5723;DHT22;2886;49.722;8.612;2023-05-13T06:09:23;17.20;99.90
5723;DHT22;2886;49.722;8.612;2023-05-13T06:11:49;18.30;97.20
5723;DHT22;2886;49.722;8.612;2023-05-13T06:14:16;18.30;92.70
5723;DHT22;2886;49.722;8.612;2023-05-13T06:16:41;17.80;83.90
5723;DHT22;2886;49.722;8.612;2023-05-13T06:19:07;17.80;91.40
5723;DHT22;2886;49.722;8.612;2023-05-13T06:21:33;17.90;87.00
5723;DHT22;2886;49.722;8.612;2023-05-13T06:23:59;18.30;70.10
5723;DHT22;2886;49.722;8.612;2023-05-13T06:26:25;19.20;67.90
5723;DHT22;2886;49.722;8.612;2023-05-13T06:28:51;19.80;58.40
5723;DHT22;2886;49.722;8.612;2023-05-13T06:31:16;19.90;57.40
5723;DHT22;2886;49.722;8.612;2023-05-13T06:33:42;19.70;55.30
5723;DHT22;2886;49.722;8.612;2023-05-13T06:36:08;19.40;58.00
5723;DHT22;2886;49.722;8.612;2023-05-13T06:38:34;18.80;62.50
5723;DHT22;2886;49.722;8.612;2023-05-13T06:40:59;18.90;62.10
5723;DHT22;2886;49.722;8.612;2023-05-13T06:43:25;18.80;58.90
5723;DHT22;2886;49.722;8.612;2023-05-13T06:45:51;18.60;56.90
5723;DHT22;2886;49.722;8.612;2023-05-13T06:48:16;18.30;56.50
5723;DHT22;2886;49.722;8.612;2023-05-13T06:50:42;18.10;58.60
5723;DHT22;2886;49.722;8.612;2023-05-13T06:53:10;17.90;58.50
5723;DHT22;2886;49.722;8.612;2023-05-13T06:55:36;17.60;59.90
5723;DHT22;2886;49.722;8.612;2023-05-13T06:58:06;17.60;60.90
5723;DHT22;2886;49.722;8.612;2023-05-13T07:00:38;17.60;60.60
5723;DHT22;2886;49.722;8.612;2023-05-13T07:03:05;17.80;61.40
5723;DHT22;2886;49.722;8.612;2023-05-13T07:05:34;17.90;59.60
5723;DHT22;2886;49.722;8.612;2023-05-13T07:08:01;18.20;60.60
5723;DHT22;2886;49.722;8.612;2023-05-13T07:10:31;18.30;59.40
5723;DHT22;2886;49.722;8.612;2023-05-13T07:12:57;18.40;56.00
5723;DHT22;2886;49.722;8.612;2023-05-13T07:15:23;18.40;56.80
5723;DHT22;2886;49.722;8.612;2023-05-13T07:17:48;18.50;57.30
5723;DHT22;2886;49.722;8.612;2023-05-13T07:20:14;18.50;57.70
5723;DHT22;2886;49.722;8.612;2023-05-13T07:22:40;18.60;56.90
5723;DHT22;2886;49.722;8.612;2023-05-13T07:25:06;18.30;58.50
5723;DHT22;2886;49.722;8.612;2023-05-13T07:27:32;18.30;57.30
5723;DHT22;2886;49.722;8.612;2023-05-13T07:29:58;18.00;62.30
5723;DHT22;2886;49.722;8.612;2023-05-13T07:32:24;18.10;63.50
5723;DHT22;2886;49.722;8.612;2023-05-13T07:34:49;18.00;65.20
5723;DHT22;2886;49.722;8.612;2023-05-13T07:37:15;18.00;63.90
5723;DHT22;2886;49.722;8.612;2023-05-13T07:39:41;18.00;65.30
5723;DHT22;2886;49.722;8.612;2023-05-13T07:42:07;18.10;64.50
5723;DHT22;2886;49.722;8.612;2023-05-13T07:44:32;18.00;65.60
5723;DHT22;2886;49.722;8.612;2023-05-13T07:46:58;18.10;64.80
5723;DHT22;2886;49.722;8.612;2023-05-13T07:49:23;18.30;63.50
5723;DHT22;2886;49.722;8.612;2023-05-13T07:51:49;18.30;61.90
5723;DHT22;2886;49.722;8.612;2023-05-13T07:54:16;18.30;61.70
5723;DHT22;2886;49.722;8.612;2023-05-13T07:56:42;18.30;62.90
5723;DHT22;2886;49.722;8.612;2023-05-13T07:59:08;18.40;62.80
5723;DHT22;2886;49.722;8.612;2023-05-13T08:01:34;18.40;61.30
5723;DHT22;2886;49.722;8.612;2023-05-13T08:04:00;18.30;61.70
5723;DHT22;2886;49.722;8.612;2023-05-13T08:06:25;18.30;60.80
5723;DHT22;2886;49.722;8.612;2023-05-13T08:08:51;18.40;60.80
5723;DHT22;2886;49.722;8.612;2023-05-13T08:11:16;18.50;60.30
5723;DHT22;2886;49.722;8.612;2023-05-13T08:13:42;18.50;59.80
5723;DHT22;2886;49.722;8.612;2023-05-13T08:16:08;18.40;59.50
5723;DHT22;2886;49.722;8.612;2023-05-13T08:18:33;18.30;59.40
5723;DHT22;2886;49.722;8.612;2023-05-13T08:20:59;18.30;60.60
5723;DHT22;2886;49.722;8.612;2023-05-13T08:23:24;18.10;59.80
5723;DHT22;2886;49.722;8.612;2023-05-13T08:25:50;18.30;60.80
5723;DHT22;2886;49.722;8.612;2023-05-13T08:28:16;18.40;60.20
5723;DHT22;2886;49.722;8.612;2023-05-13T08:30:41;18.70;60.30
5723;DHT22;2886;49.722;8.612;2023-05-13T08:33:09;19.00;57.90
5723;DHT22;2886;49.722;8.612;2023-05-13T08:35:36;19.30;55.00
5723;DHT22;2886;49.722;8.612;2023-05-13T08:38:01;19.00;55.90
5723;DHT22;2886;49.722;8.612;2023-05-13T08:40:31;19.10;55.50
5723;DHT22;2886;49.722;8.612;2023-05-13T08:42:59;19.20;55.70
5723;DHT22;2886;49.722;8.612;2023-05-13T08:45:28;19.20;54.80
5723;DHT22;2886;49.722;8.612;2023-05-13T08:47:57;19.30;53.90
5723;DHT22;2886;49.722;8.612;2023-05-13T08:50:24;19.30;54.60
5723;DHT22;2886;49.722;8.612;2023-05-13T08:52:54;19.70;54.50
5723;DHT22;2886;49.722;8.612;2023-05-13T08:55:20;19.90;53.60
5723;DHT22;2886;49.722;8.612;2023-05-13T08:57:46;20.20;53.40
5723;DHT22;2886;49.722;8.612;2023-05-13T09:00:12;20.60;53.30
5723;DHT22;2886;49.722;8.612;2023-05-13T09:02:40;20.80;49.90
5723;DHT22;2886;49.722;8.612;2023-05-13T09:05:07;20.50;50.10
5723;DHT22;2886;49.722;8.612;2023-05-13T09:07:34;20.20;51.50
5723;DHT22;2886;49.722;8.612;2023-05-13T09:10:01;19.60;51.20
5723;DHT22;2886;49.722;8.612;2023-05-13T09:12:53;19.50;52.50
5723;DHT22;2886;49.722;8.612;2023-05-13T09:15:21;19.90;52.70
5723;DHT22;2886;49.722;8.612;2023-05-13T09:17:53;20.30;50.90
5723;DHT22;2886;49.722;8.612;2023-05-13T09:20:20;20.30;51.00
5723;DHT22;2886;49.722;8.612;2023-05-13T09:22:47;20.00;51.40
5723;DHT22;2886;49.722;8.612;2023-05-13T09:25:15;20.00;51.70
5723;DHT22;2886;49.722;8.612;2023-05-13T09:27:43;20.00;51.70
5723;DHT22;2886;49.722;8.612;2023-05-13T09:30:09;19.70;52.40
5723;DHT22;2886;49.722;8.612;2023-05-13T09:32:36;19.90;53.00
5723;DHT22;2886;49.722;8.612;2023-05-13T09:35:15;19.90;51.40
5723;DHT22;2886;49.722;8.612;2023-05-13T09:37:47;20.00;50.60
5723;DHT22;2886;49.722;8.612;2023-05-13T09:40:16;19.80;49.90
5723;DHT22;2886;49.722;8.612;2023-05-13T09:42:43;19.70;49.50
5723;DHT22;2886;49.722;8.612;2023-05-13T09:45:14;19.70;49.80
5723;DHT22;2886;49.722;8.612;2023-05-13T09:47:41;19.90;50.00
5723;DHT22;2886;49.722;8.612;2023-05-13T09:50:08;19.70;49.30
5723;DHT22;2886;49.722;8.612;2023-05-13T09:52:35;20.10;48.60
5723;DHT22;2886;49.722;8.612;2023-05-13T09:55:01;20.50;48.40
5723;DHT22;2886;49.722;8.612;2023-05-13T09:57:31;20.60;47.50
5723;DHT22;2886;49.722;8.612;2023-05-13T10:00:00;20.90;47.70
5723;DHT22;2886;49.722;8.612;2023-05-13T10:02:27;20.90;46.30
5723;DHT22;2886;49.722;8.612;2023-05-13T10:04:53;21.00;47.80
5723;DHT22;2886;49.722;8.612;2023-05-13T10:07:21;21.00;46.80
5723;DHT22;2886;49.722;8.612;2023-05-13T10:09:56;21.40;45.50
5723;DHT22;2886;49.722;8.612;2023-05-13T10:12:24;21.20;46.50
5723;DHT22;2886;49.722;8.612;2023-05-13T10:14:52;21.10;47.60
5723;DHT22;2886;49.722;8.612;2023-05-13T10:17:22;21.40;47.20
5723;DHT22;2886;49.722;8.612;2023-05-13T10:19:52;21.20;46.50
5723;DHT22;2886;49.722;8.612;2023-05-13T10:22:29;21.20;47.10
5723;DHT22;2886;49.722;8.612;2023-05-13T10:25:00;20.70;48.30
5723;DHT22;2886;49.722;8.612;2023-05-13T10:27:30;20.90;48.00
5723;DHT22;2886;49.722;8.612;2023-05-13T10:29:56;21.30;47.40
5723;DHT22;2886;49.722;8.612;2023-05-13T10:32:27;21.20;47.60
5723;DHT22;2886;49.722;8.612;2023-05-13T10:35:07;20.80;48.20
5723;DHT22;2886;49.722;8.612;2023-05-13T10:43:07;21.80;45.10
5723;DHT22;2886;49.722;8.612;2023-05-13T10:45:33;21.70;46.70
5723;DHT22;2886;49.722;8.612;2023-05-13T10:48:09;21.80;46.30
5723;DHT22;2886;49.722;8.612;2023-05-13T10:50:36;21.80;47.00
5723;DHT22;2886;49.722;8.612;2023-05-13T10:53:09;21.70;47.00
5723;DHT22;2886;49.722;8.612;2023-05-13T10:55:44;21.10;47.10
5723;DHT22;2886;49.722;8.612;2023-05-13T10:58:14;20.60;49.30
5723;DHT22;2886;49.722;8.612;2023-05-13T11:00:42;20.80;49.30
5723;DHT22;2886;49.722;8.612;2023-05-13T11:05:58;21.30;47.40
5723;DHT22;2886;49.722;8.612;2023-05-13T11:08:37;21.40;46.50
5723;DHT22;2886;49.722;8.612;2023-05-13T11:13:51;21.30;47.80
5723;DHT22;2886;49.722;8.612;2023-05-13T11:16:17;21.20;46.60
5723;DHT22;2886;49.722;8.612;2023-05-13T11:18:43;21.30;46.90
5723;DHT22;2886;49.722;8.612;2023-05-13T11:21:08;21.30;46.20
5723;DHT22;2886;49.722;8.612;2023-05-13T11:23:57;21.20;46.80
5723;DHT22;2886;49.722;8.612;2023-05-13T11:26:23;21.40;46.40
5723;DHT22;2886;49.722;8.612;2023-05-13T11:31:18;21.70;46.30
5723;DHT22;2886;49.722;8.612;2023-05-13T11:34:04;21.70;45.80
5723;DHT22;2886;49.722;8.612;2023-05-13T11:36:31;21.60;45.50
5723;DHT22;2886;49.722;8.612;2023-05-13T11:39:15;21.60;45.90
5723;DHT22;2886;49.722;8.612;2023-05-13T11:41:43;21.40;47.10
5723;DHT22;2886;49.722;8.612;2023-05-13T11:44:10;21.30;45.70
5723;DHT22;2886;49.722;8.612;2023-05-13T11:46:36;21.30;45.90
5723;DHT22;2886;49.722;8.612;2023-05-13T11:49:02;21.10;47.70
5723;DHT22;2886;49.722;8.612;2023-05-13T11:51:28;21.10;46.90
5723;DHT22;2886;49.722;8.612;2023-05-13T11:54:03;21.30;46.50
5723;DHT22;2886;49.722;8.612;2023-05-13T11:56:29;21.60;46.20
5723;DHT22;2886;49.722;8.612;2023-05-13T11:58:55;21.80;44.90
5723;DHT22;2886;49.722;8.612;2023-05-13T12:01:36;22.20;43.60
5723;DHT22;2886;49.722;8.612;2023-05-13T12:04:01;22.60;42.10
5723;DHT22;2886;49.722;8.612;2023-05-13T12:06:28;23.00;41.90
5723;DHT22;2886;49.722;8.612;2023-05-13T12:08:54;23.10;39.70
5723;DHT22;2886;49.722;8.612;2023-05-13T12:11:21;23.20;40.80
5723;DHT22;2886;49.722;8.612;2023-05-13T12:13:47;23.30;41.40
5723;DHT22;2886;49.722;8.612;2023-05-13T12:16:12;23.60;41.20
5723;DHT22;2886;49.722;8.612;2023-05-13T12:18:38;23.90;37.00
5723;DHT22;2886;49.722;8.612;2023-05-13T12:21:14;24.00;37.30
5723;DHT22;2886;49.722;8.612;2023-05-13T12:23:42;24.00;35.30
5723;DHT22;2886;49.722;8.612;2023-05-13T12:26:07;23.90;35.80
5723;DHT22;2886;49.722;8.612;2023-05-13T12:28:33;24.10;34.80
5723;DHT22;2886;49.722;8.612;2023-05-13T12:31:01;24.30;34.80
5723;DHT22;2886;49.722;8.612;2023-05-13T12:33:31;24.50;34.40
5723;DHT22;2886;49.722;8.612;2023-05-13T12:36:19;24.60;35.10
5723;DHT22;2886;49.722;8.612;2023-05-13T12:39:02;24.10;35.10
5723;DHT22;2886;49.722;8.612;2023-05-13T12:41:30;23.10;37.20
5723;DHT22;2886;49.722;8.612;2023-05-13T12:43:57;22.20;39.10
5723;DHT22;2886;49.722;8.612;2023-05-13T12:46:23;21.80;41.00
5723;DHT22;2886;49.722;8.612;2023-05-13T12:48:53;20.80;45.60
5723;DHT22;2886;49.722;8.612;2023-05-13T12:51:19;19.50;49.60
5723;DHT22;2886;49.722;8.612;2023-05-13T12:53:44;19.10;50.70
5723;DHT22;2886;49.722;8.612;2023-05-13T12:56:10;18.90;48.10
5723;DHT22;2886;49.722;8.612;2023-05-13T12:58:36;19.00;45.00
5723;DHT22;2886;49.722;8.612;2023-05-13T13:01:02;19.40;45.50
5723;DHT22;2886;49.722;8.612;2023-05-13T13:03:27;19.50;46.00
5723;DHT22;2886;49.722;8.612;2023-05-13T13:05:53;19.70;40.80
5723;DHT22;2886;49.722;8.612;2023-05-13T13:08:19;20.10;40.40
5723;DHT22;2886;49.722;8.612;2023-05-13T13:10:45;20.50;38.30
5723;DHT22;2886;49.722;8.612;2023-05-13T13:13:10;20.50;37.70
5723;DHT22;2886;49.722;8.612;2023-05-13T13:15:36;20.60;38.10
5723;DHT22;2886;49.722;8.612;2023-05-13T13:18:02;20.90;37.60
5723;DHT22;2886;49.722;8.612;2023-05-13T13:20:27;20.70;38.70
5723;DHT22;2886;49.722;8.612;2023-05-13T13:22:53;20.60;39.90
5723;DHT22;2886;49.722;8.612;2023-05-13T13:25:19;20.60;40.60
5723;DHT22;2886;49.722;8.612;2023-05-13T13:27:44;20.50;41.60
5723;DHT22;2886;49.722;8.612;2023-05-13T13:30:10;20.40;42.50
5723;DHT22;2886;49.722;8.612;2023-05-13T13:32:37;20.40;42.80
5723;DHT22;2886;49.722;8.612;2023-05-13T13:35:03;20.50;43.10
5723;DHT22;2886;49.722;8.612;2023-05-13T13:37:29;20.50;43.60
5723;DHT22;2886;49.722;8.612;2023-05-13T13:39:55;20.60;44.30
5723;DHT22;2886;49.722;8.612;2023-05-13T13:42:21;20.70;44.50
5723;DHT22;2886;49.722;8.612;2023-05-13T13:44:47;20.30;59.60
5723;DHT22;2886;49.722;8.612;2023-05-13T13:47:14;18.80;91.10
5723;DHT22;2886;49.722;8.612;2023-05-13T13:49:39;17.30;99.90
5723;DHT22;2886;49.722;8.612;2023-05-13T13:52:07;16.50;99.90
5723;DHT22;2886;49.722;8.612;2023-05-13T13:54:33;15.90;99.90
5723;DHT22;2886;49.722;8.612;2023-05-13T13:56:58;15.50;99.90
5723;DHT22;2886;49.722;8.612;2023-05-13T13:59:24;15.30;99.90
5723;DHT22;2886;49.722;8.612;2023-05-13T14:01:49;15.10;99.90
5723;DHT22;2886;49.722;8.612;2023-05-13T14:04:17;15.10;99.90
5723;DHT22;2886;49.722;8.612;2023-05-13T14:06:52;15.30;99.90
5723;DHT22;2886;49.722;8.612;2023-05-13T14:09:19;15.40;99.90
5723;DHT22;2886;49.722;8.612;2023-05-13T14:11:45;15.50;99.90
5723;DHT22;2886;49.722;8.612;2023-05-13T14:14:11;15.60;99.90
5723;DHT22;2886;49.722;8.612;2023-05-13T14:16:37;15.90;99.90
5723;DHT22;2886;49.722;8.612;2023-05-13T14:19:02;16.00;99.90
5723;DHT22;2886;49.722;8.612;2023-05-13T14:21:28;16.30;99.90
5723;DHT22;2886;49.722;8.612;2023-05-13T14:23:54;16.60;99.90
5723;DHT22;2886;49.722;8.612;2023-05-13T14:26:19;16.80;99.90
5723;DHT22;2886;49.722;8.612;2023-05-13T14:28:45;16.90;99.90
5723;DHT22;2886;49.722;8.612;2023-05-13T14:31:11;17.10;99.90
5723;DHT22;2886;49.722;8.612;2023-05-13T14:33:36;17.20;99.90
5723;DHT22;2886;49.722;8.612;2023-05-13T14:36:03;17.50;99.90
5723;DHT22;2886;49.722;8.612;2023-05-13T14:38:28;17.70;99.90
5723;DHT22;2886;49.722;8.612;2023-05-13T14:40:55;17.60;99.90
5723;DHT22;2886;49.722;8.612;2023-05-13T14:43:22;17.50;99.90
5723;DHT22;2886;49.722;8.612;2023-05-13T14:45:47;17.60;99.90
5723;DHT22;2886;49.722;8.612;2023-05-13T14:48:13;17.30;99.90
5723;DHT22;2886;49.722;8.612;2023-05-13T14:50:43;17.10;99.90
5723;DHT22;2886;49.722;8.612;2023-05-13T14:53:09;17.10;99.90
5723;DHT22;2886;49.722;8.612;2023-05-13T14:55:35;17.20;99.90
5723;DHT22;2886;49.722;8.612;2023-05-13T14:58:01;17.40;99.90
5723;DHT22;2886;49.722;8.612;2023-05-13T15:00:28;17.70;99.90
5723;DHT22;2886;49.722;8.612;2023-05-13T15:02:53;17.80;99.90
5723;DHT22;2886;49.722;8.612;2023-05-13T15:05:19;17.80;99.90
5723;DHT22;2886;49.722;8.612;2023-05-13T15:07:45;17.80;99.90
5723;DHT22;2886;49.722;8.612;2023-05-13T15:10:10;18.00;99.90
5723;DHT22;2886;49.722;8.612;2023-05-13T15:12:36;18.20;99.90
5723;DHT22;2886;49.722;8.612;2023-05-13T15:15:02;18.40;99.90
5723;DHT22;2886;49.722;8.612;2023-05-13T15:17:28;18.30;99.90
5723;DHT22;2886;49.722;8.612;2023-05-13T15:19:54;18.20;99.90
5723;DHT22;2886;49.722;8.612;2023-05-13T15:22:19;18.10;99.90
5723;DHT22;2886;49.722;8.612;2023-05-13T15:24:45;18.10;99.90
5723;DHT22;2886;49.722;8.612;2023-05-13T15:27:10;18.10;99.90
5723;DHT22;2886;49.722;8.612;2023-05-13T15:29:36;18.20;99.90
5723;DHT22;2886;49.722;8.612;2023-05-13T15:32:02;18.40;99.90
5723;DHT22;2886;49.722;8.612;2023-05-13T15:34:27;18.20;99.90
5723;DHT22;2886;49.722;8.612;2023-05-13T15:36:53;17.80;99.90
5723;DHT22;2886;49.722;8.612;2023-05-13T15:39:19;17.80;99.90
5723;DHT22;2886;49.722;8.612;2023-05-13T15:41:44;17.70;99.90
5723;DHT22;2886;49.722;8.612;2023-05-13T15:44:10;17.60;99.90
5723;DHT22;2886;49.722;8.612;2023-05-13T15:46:36;17.70;99.90
5723;DHT22;2886;49.722;8.612;2023-05-13T15:49:02;17.90;99.90
5723;DHT22;2886;49.722;8.612;2023-05-13T15:51:27;18.10;99.90
5723;DHT22;2886;49.722;8.612;2023-05-13T15:53:53;18.20;99.90
5723;DHT22;2886;49.722;8.612;2023-05-13T15:56:20;18.10;99.90
5723;DHT22;2886;49.722;8.612;2023-05-13T15:58:46;18.10;99.90
5723;DHT22;2886;49.722;8.612;2023-05-13T16:01:12;18.10;99.90
5723;DHT22;2886;49.722;8.612;2023-05-13T16:03:37;18.20;99.90
5723;DHT22;2886;49.722;8.612;2023-05-13T16:06:03;18.30;99.90
5723;DHT22;2886;49.722;8.612;2023-05-13T16:08:29;18.30;99.90
5723;DHT22;2886;49.722;8.612;2023-05-13T16:10:55;18.60;99.90
5723;DHT22;2886;49.722;8.612;2023-05-13T16:13:20;18.80;99.90
5723;DHT22;2886;49.722;8.612;2023-05-13T16:15:46;18.60;99.90